sensor_id;sensor_type;location;lat;lon;timestamp;P1;durP1;ratioP1;P2;durP2;ratioP2
2944;SDS011;1482;51.398;7.128;2022-11-14T00:00:27;11.33;;;8.07;;
2944;SDS011;1482;51.398;7.128;2022-11-14T00:02:54;12.63;;;9.70;;
2944;SDS011;1482;51.398;7.128;2022-11-14T00:05:23;11.00;;;9.13;;
2944;SDS011;1482;51.398;7.128;2022-11-14T00:07:48;16.20;;;9.77;;
2944;SDS011;1482;51.398;7.128;2022-11-14T00:10:14;12.93;;;9.40;;
2944;SDS011;1482;51.398;7.128;2022-11-14T00:12:40;10.27;;;9.10;;
2944;SDS011;1482;51.398;7.128;2022-11-14T00:15:06;13.50;;;10.40;;
2944;SDS011;1482;51.398;7.128;2022-11-14T00:17:32;13.93;;;9.80;;
2944;SDS011;1482;51.398;7.128;2022-11-14T00:19:57;13.20;;;9.53;;
2944;SDS011;1482;51.398;7.128;2022-11-14T00:22:23;18.60;;;10.40;;
2944;SDS011;1482;51.398;7.128;2022-11-14T00:24:48;14.00;;;10.40;;
2944;SDS011;1482;51.398;7.128;2022-11-14T00:27:14;16.20;;;11.10;;
2944;SDS011;1482;51.398;7.128;2022-11-14T00:29:40;15.60;;;10.43;;
2944;SDS011;1482;51.398;7.128;2022-11-14T00:32:05;18.27;;;12.07;;
2944;SDS011;1482;51.398;7.128;2022-11-14T00:34:31;15.50;;;11.17;;
2944;SDS011;1482;51.398;7.128;2022-11-14T00:36:57;16.57;;;10.97;;
2944;SDS011;1482;51.398;7.128;2022-11-14T00:39:23;14.90;;;10.73;;
2944;SDS011;1482;51.398;7.128;2022-11-14T00:41:48;14.63;;;11.30;;
2944;SDS011;1482;51.398;7.128;2022-11-14T00:44:14;16.63;;;10.77;;
2944;SDS011;1482;51.398;7.128;2022-11-14T00:46:39;10.80;;;9.77;;
2944;SDS011;1482;51.398;7.128;2022-11-14T00:49:05;15.13;;;10.10;;
2944;SDS011;1482;51.398;7.128;2022-11-14T00:51:31;12.90;;;10.50;;
2944;SDS011;1482;51.398;7.128;2022-11-14T00:53:56;12.77;;;10.33;;
2944;SDS011;1482;51.398;7.128;2022-11-14T00:56:22;13.97;;;10.47;;
2944;SDS011;1482;51.398;7.128;2022-11-14T00:58:47;13.17;;;10.47;;
2944;SDS011;1482;51.398;7.128;2022-11-14T01:01:13;14.53;;;10.30;;
2944;SDS011;1482;51.398;7.128;2022-11-14T01:03:38;14.43;;;10.73;;
2944;SDS011;1482;51.398;7.128;2022-11-14T01:06:05;15.93;;;11.37;;
2944;SDS011;1482;51.398;7.128;2022-11-14T01:08:32;15.20;;;10.40;;
2944;SDS011;1482;51.398;7.128;2022-11-14T01:10:58;12.73;;;10.47;;
2944;SDS011;1482;51.398;7.128;2022-11-14T01:13:24;13.60;;;10.03;;
2944;SDS011;1482;51.398;7.128;2022-11-14T01:15:50;10.43;;;9.27;;
2944;SDS011;1482;51.398;7.128;2022-11-14T01:18:18;12.63;;;10.60;;
2944;SDS011;1482;51.398;7.128;2022-11-14T01:20:45;13.73;;;9.90;;
2944;SDS011;1482;51.398;7.128;2022-11-14T01:23:12;13.07;;;9.60;;
2944;SDS011;1482;51.398;7.128;2022-11-14T01:25:40;11.10;;;9.47;;
2944;SDS011;1482;51.398;7.128;2022-11-14T01:28:06;19.93;;;10.77;;
2944;SDS011;1482;51.398;7.128;2022-11-14T01:30:33;14.10;;;10.07;;
2944;SDS011;1482;51.398;7.128;2022-11-14T01:32:59;14.80;;;10.27;;
2944;SDS011;1482;51.398;7.128;2022-11-14T01:35:25;16.57;;;10.60;;
2944;SDS011;1482;51.398;7.128;2022-11-14T01:37:51;11.70;;;9.73;;
2944;SDS011;1482;51.398;7.128;2022-11-14T01:40:16;18.27;;;11.27;;
2944;SDS011;1482;51.398;7.128;2022-11-14T01:43:05;13.80;;;10.50;;
2944;SDS011;1482;51.398;7.128;2022-11-14T01:48:22;16.43;;;12.07;;
2944;SDS011;1482;51.398;7.128;2022-11-14T01:51:00;14.27;;;10.87;;
2944;SDS011;1482;51.398;7.128;2022-11-14T01:53:39;15.47;;;11.10;;
2944;SDS011;1482;51.398;7.128;2022-11-14T01:56:07;15.03;;;10.37;;
2944;SDS011;1482;51.398;7.128;2022-11-14T01:58:34;14.97;;;10.63;;
2944;SDS011;1482;51.398;7.128;2022-11-14T02:01:02;19.73;;;9.50;;
2944;SDS011;1482;51.398;7.128;2022-11-14T02:03:28;21.13;;;11.27;;
2944;SDS011;1482;51.398;7.128;2022-11-14T02:05:53;18.37;;;10.93;;
2944;SDS011;1482;51.398;7.128;2022-11-14T02:08:20;13.47;;;10.13;;
2944;SDS011;1482;51.398;7.128;2022-11-14T02:10:47;19.37;;;11.03;;
2944;SDS011;1482;51.398;7.128;2022-11-14T02:13:13;26.70;;;11.00;;
2944;SDS011;1482;51.398;7.128;2022-11-14T02:15:38;18.73;;;11.03;;
2944;SDS011;1482;51.398;7.128;2022-11-14T02:18:04;19.23;;;11.07;;
2944;SDS011;1482;51.398;7.128;2022-11-14T02:20:32;11.90;;;9.33;;
2944;SDS011;1482;51.398;7.128;2022-11-14T02:23:00;20.33;;;10.53;;
2944;SDS011;1482;51.398;7.128;2022-11-14T02:25:25;13.90;;;10.90;;
2944;SDS011;1482;51.398;7.128;2022-11-14T02:27:51;12.73;;;10.20;;
2944;SDS011;1482;51.398;7.128;2022-11-14T02:30:19;11.47;;;10.27;;
2944;SDS011;1482;51.398;7.128;2022-11-14T02:32:46;15.90;;;11.07;;
2944;SDS011;1482;51.398;7.128;2022-11-14T02:35:12;21.93;;;11.57;;
2944;SDS011;1482;51.398;7.128;2022-11-14T02:37:38;15.00;;;10.57;;
2944;SDS011;1482;51.398;7.128;2022-11-14T02:40:03;15.17;;;12.43;;
2944;SDS011;1482;51.398;7.128;2022-11-14T02:42:30;16.70;;;11.20;;
2944;SDS011;1482;51.398;7.128;2022-11-14T02:44:55;15.97;;;10.80;;
2944;SDS011;1482;51.398;7.128;2022-11-14T02:47:21;18.70;;;11.77;;
2944;SDS011;1482;51.398;7.128;2022-11-14T02:49:48;20.60;;;12.50;;
2944;SDS011;1482;51.398;7.128;2022-11-14T02:52:14;20.40;;;13.00;;
2944;SDS011;1482;51.398;7.128;2022-11-14T02:54:40;17.30;;;12.97;;
2944;SDS011;1482;51.398;7.128;2022-11-14T02:57:06;15.53;;;11.83;;
2944;SDS011;1482;51.398;7.128;2022-11-14T02:59:31;16.00;;;10.67;;
2944;SDS011;1482;51.398;7.128;2022-11-14T03:01:57;16.10;;;10.90;;
2944;SDS011;1482;51.398;7.128;2022-11-14T03:04:22;11.87;;;9.87;;
2944;SDS011;1482;51.398;7.128;2022-11-14T03:06:48;16.03;;;10.67;;
2944;SDS011;1482;51.398;7.128;2022-11-14T03:09:13;14.60;;;10.97;;
2944;SDS011;1482;51.398;7.128;2022-11-14T03:11:39;12.57;;;9.90;;
2944;SDS011;1482;51.398;7.128;2022-11-14T03:14:04;12.00;;;10.80;;
2944;SDS011;1482;51.398;7.128;2022-11-14T03:16:30;14.97;;;10.60;;
2944;SDS011;1482;51.398;7.128;2022-11-14T03:18:56;15.30;;;10.83;;
2944;SDS011;1482;51.398;7.128;2022-11-14T03:21:21;11.23;;;9.27;;
2944;SDS011;1482;51.398;7.128;2022-11-14T03:23:47;9.67;;;7.50;;
2944;SDS011;1482;51.398;7.128;2022-11-14T03:26:13;14.90;;;9.97;;
2944;SDS011;1482;51.398;7.128;2022-11-14T03:28:39;10.87;;;8.13;;
2944;SDS011;1482;51.398;7.128;2022-11-14T03:31:05;7.73;;;5.97;;
2944;SDS011;1482;51.398;7.128;2022-11-14T03:33:32;7.23;;;4.83;;
2944;SDS011;1482;51.398;7.128;2022-11-14T03:35:59;5.77;;;4.77;;
2944;SDS011;1482;51.398;7.128;2022-11-14T03:38:25;5.00;;;4.50;;
2944;SDS011;1482;51.398;7.128;2022-11-14T03:40:50;5.03;;;4.53;;
2944;SDS011;1482;51.398;7.128;2022-11-14T03:43:16;7.87;;;5.20;;
2944;SDS011;1482;51.398;7.128;2022-11-14T03:45:43;9.90;;;6.20;;
2944;SDS011;1482;51.398;7.128;2022-11-14T03:48:09;9.87;;;5.97;;
2944;SDS011;1482;51.398;7.128;2022-11-14T03:50:35;7.60;;;5.43;;
2944;SDS011;1482;51.398;7.128;2022-11-14T03:53:00;8.20;;;5.70;;
2944;SDS011;1482;51.398;7.128;2022-11-14T03:55:26;6.67;;;4.60;;
2944;SDS011;1482;51.398;7.128;2022-11-14T03:57:52;6.30;;;4.43;;
2944;SDS011;1482;51.398;7.128;2022-11-14T04:00:17;10.33;;;5.27;;
2944;SDS011;1482;51.398;7.128;2022-11-14T04:02:44;7.07;;;5.13;;
2944;SDS011;1482;51.398;7.128;2022-11-14T04:05:09;8.27;;;5.83;;
2944;SDS011;1482;51.398;7.128;2022-11-14T04:07:35;5.40;;;4.90;;
2944;SDS011;1482;51.398;7.128;2022-11-14T04:10:01;6.00;;;4.60;;
2944;SDS011;1482;51.398;7.128;2022-11-14T04:12:26;4.83;;;4.10;;
2944;SDS011;1482;51.398;7.128;2022-11-14T04:14:52;7.07;;;5.23;;
2944;SDS011;1482;51.398;7.128;2022-11-14T04:17:17;4.77;;;4.27;;
2944;SDS011;1482;51.398;7.128;2022-11-14T04:19:43;6.50;;;5.27;;
2944;SDS011;1482;51.398;7.128;2022-11-14T04:22:08;6.20;;;5.03;;
2944;SDS011;1482;51.398;7.128;2022-11-14T04:24:34;15.23;;;4.93;;
2944;SDS011;1482;51.398;7.128;2022-11-14T04:26:59;6.90;;;6.20;;
2944;SDS011;1482;51.398;7.128;2022-11-14T04:29:25;5.73;;;5.20;;
2944;SDS011;1482;51.398;7.128;2022-11-14T04:31:50;7.60;;;5.90;;
2944;SDS011;1482;51.398;7.128;2022-11-14T04:34:16;7.00;;;5.73;;
2944;SDS011;1482;51.398;7.128;2022-11-14T04:36:41;6.83;;;5.63;;
2944;SDS011;1482;51.398;7.128;2022-11-14T04:39:07;7.57;;;6.17;;
2944;SDS011;1482;51.398;7.128;2022-11-14T04:41:32;9.27;;;5.90;;
2944;SDS011;1482;51.398;7.128;2022-11-14T04:43:58;7.03;;;5.90;;
2944;SDS011;1482;51.398;7.128;2022-11-14T04:46:24;13.53;;;6.00;;
2944;SDS011;1482;51.398;7.128;2022-11-14T04:48:49;6.63;;;5.47;;
2944;SDS011;1482;51.398;7.128;2022-11-14T04:51:15;8.07;;;6.40;;
2944;SDS011;1482;51.398;7.128;2022-11-14T04:53:40;7.30;;;5.60;;
2944;SDS011;1482;51.398;7.128;2022-11-14T04:56:06;7.40;;;5.00;;
2944;SDS011;1482;51.398;7.128;2022-11-14T04:58:32;7.00;;;5.53;;
2944;SDS011;1482;51.398;7.128;2022-11-14T05:00:58;6.63;;;5.50;;
2944;SDS011;1482;51.398;7.128;2022-11-14T05:03:23;7.17;;;5.93;;
2944;SDS011;1482;51.398;7.128;2022-11-14T05:05:49;10.07;;;6.23;;
2944;SDS011;1482;51.398;7.128;2022-11-14T05:08:15;7.83;;;6.20;;
2944;SDS011;1482;51.398;7.128;2022-11-14T05:10:44;7.27;;;6.50;;
2944;SDS011;1482;51.398;7.128;2022-11-14T05:13:11;8.40;;;5.97;;
2944;SDS011;1482;51.398;7.128;2022-11-14T05:15:37;7.07;;;6.10;;
2944;SDS011;1482;51.398;7.128;2022-11-14T05:18:02;8.67;;;7.77;;
2944;SDS011;1482;51.398;7.128;2022-11-14T05:20:28;7.20;;;6.07;;
2944;SDS011;1482;51.398;7.128;2022-11-14T05:22:54;7.57;;;6.47;;
2944;SDS011;1482;51.398;7.128;2022-11-14T05:25:20;10.40;;;7.47;;
2944;SDS011;1482;51.398;7.128;2022-11-14T05:27:46;8.70;;;6.43;;
2944;SDS011;1482;51.398;7.128;2022-11-14T05:30:12;7.00;;;6.30;;
2944;SDS011;1482;51.398;7.128;2022-11-14T05:32:38;8.73;;;5.50;;
2944;SDS011;1482;51.398;7.128;2022-11-14T05:35:04;8.03;;;6.00;;
2944;SDS011;1482;51.398;7.128;2022-11-14T05:37:30;8.97;;;6.70;;
2944;SDS011;1482;51.398;7.128;2022-11-14T05:39:56;7.50;;;5.50;;
2944;SDS011;1482;51.398;7.128;2022-11-14T05:42:21;9.93;;;6.00;;
2944;SDS011;1482;51.398;7.128;2022-11-14T05:44:47;7.63;;;5.50;;
2944;SDS011;1482;51.398;7.128;2022-11-14T05:47:12;7.23;;;6.00;;
2944;SDS011;1482;51.398;7.128;2022-11-14T05:49:38;8.03;;;6.20;;
2944;SDS011;1482;51.398;7.128;2022-11-14T05:52:03;7.43;;;6.17;;
2944;SDS011;1482;51.398;7.128;2022-11-14T05:54:29;9.87;;;6.30;;
2944;SDS011;1482;51.398;7.128;2022-11-14T05:56:54;8.50;;;6.37;;
2944;SDS011;1482;51.398;7.128;2022-11-14T05:59:20;8.60;;;6.70;;
2944;SDS011;1482;51.398;7.128;2022-11-14T06:01:45;8.37;;;6.27;;
2944;SDS011;1482;51.398;7.128;2022-11-14T06:04:12;7.60;;;5.93;;
2944;SDS011;1482;51.398;7.128;2022-11-14T06:06:38;8.77;;;7.07;;
2944;SDS011;1482;51.398;7.128;2022-11-14T06:09:04;9.73;;;6.40;;
2944;SDS011;1482;51.398;7.128;2022-11-14T06:11:30;7.40;;;5.80;;
2944;SDS011;1482;51.398;7.128;2022-11-14T06:13:55;7.93;;;6.87;;
2944;SDS011;1482;51.398;7.128;2022-11-14T06:16:21;7.43;;;6.43;;
2944;SDS011;1482;51.398;7.128;2022-11-14T06:18:47;8.90;;;6.80;;
2944;SDS011;1482;51.398;7.128;2022-11-14T06:21:16;7.37;;;6.50;;
2944;SDS011;1482;51.398;7.128;2022-11-14T06:23:43;10.23;;;7.20;;
2944;SDS011;1482;51.398;7.128;2022-11-14T06:26:12;8.60;;;6.40;;
2944;SDS011;1482;51.398;7.128;2022-11-14T06:28:39;8.00;;;6.80;;
2944;SDS011;1482;51.398;7.128;2022-11-14T06:31:04;8.23;;;7.00;;
2944;SDS011;1482;51.398;7.128;2022-11-14T06:33:34;7.07;;;6.00;;
2944;SDS011;1482;51.398;7.128;2022-11-14T06:36:01;8.60;;;6.70;;
2944;SDS011;1482;51.398;7.128;2022-11-14T06:38:32;9.13;;;8.10;;
2944;SDS011;1482;51.398;7.128;2022-11-14T06:41:02;9.10;;;8.10;;
2944;SDS011;1482;51.398;7.128;2022-11-14T06:43:33;7.13;;;6.37;;
2944;SDS011;1482;51.398;7.128;2022-11-14T06:45:59;8.17;;;6.90;;
2944;SDS011;1482;51.398;7.128;2022-11-14T06:48:25;11.60;;;7.90;;
2944;SDS011;1482;51.398;7.128;2022-11-14T06:50:52;9.40;;;6.67;;
2944;SDS011;1482;51.398;7.128;2022-11-14T06:53:18;9.93;;;7.57;;
2944;SDS011;1482;51.398;7.128;2022-11-14T06:55:52;9.23;;;6.57;;
2944;SDS011;1482;51.398;7.128;2022-11-14T06:58:35;10.77;;;8.70;;
2944;SDS011;1482;51.398;7.128;2022-11-14T07:01:06;13.30;;;8.43;;
2944;SDS011;1482;51.398;7.128;2022-11-14T07:03:35;11.23;;;8.03;;
2944;SDS011;1482;51.398;7.128;2022-11-14T07:06:01;8.20;;;7.30;;
2944;SDS011;1482;51.398;7.128;2022-11-14T07:08:27;12.03;;;7.30;;
2944;SDS011;1482;51.398;7.128;2022-11-14T07:10:53;15.60;;;7.27;;
2944;SDS011;1482;51.398;7.128;2022-11-14T07:13:18;9.00;;;7.20;;
2944;SDS011;1482;51.398;7.128;2022-11-14T07:15:50;10.70;;;8.03;;
2944;SDS011;1482;51.398;7.128;2022-11-14T07:18:17;10.57;;;7.47;;
2944;SDS011;1482;51.398;7.128;2022-11-14T07:20:43;11.57;;;8.10;;
2944;SDS011;1482;51.398;7.128;2022-11-14T07:23:09;11.77;;;8.10;;
2944;SDS011;1482;51.398;7.128;2022-11-14T07:25:34;10.20;;;7.37;;
2944;SDS011;1482;51.398;7.128;2022-11-14T07:28:00;8.10;;;7.30;;
2944;SDS011;1482;51.398;7.128;2022-11-14T07:30:25;9.80;;;7.33;;
2944;SDS011;1482;51.398;7.128;2022-11-14T07:32:54;8.60;;;7.20;;
2944;SDS011;1482;51.398;7.128;2022-11-14T07:35:20;8.27;;;7.50;;
2944;SDS011;1482;51.398;7.128;2022-11-14T07:37:46;9.20;;;8.13;;
2944;SDS011;1482;51.398;7.128;2022-11-14T07:40:12;8.93;;;8.03;;
2944;SDS011;1482;51.398;7.128;2022-11-14T07:42:37;9.47;;;7.87;;
2944;SDS011;1482;51.398;7.128;2022-11-14T07:45:03;8.63;;;7.80;;
2944;SDS011;1482;51.398;7.128;2022-11-14T07:47:28;10.87;;;9.30;;
2944;SDS011;1482;51.398;7.128;2022-11-14T07:49:54;10.10;;;9.10;;
2944;SDS011;1482;51.398;7.128;2022-11-14T07:52:19;10.73;;;9.63;;
2944;SDS011;1482;51.398;7.128;2022-11-14T07:54:45;8.67;;;7.80;;
2944;SDS011;1482;51.398;7.128;2022-11-14T07:57:11;10.53;;;9.53;;
2944;SDS011;1482;51.398;7.128;2022-11-14T07:59:37;10.30;;;9.30;;
2944;SDS011;1482;51.398;7.128;2022-11-14T08:02:02;10.53;;;9.60;;
2944;SDS011;1482;51.398;7.128;2022-11-14T08:04:28;11.30;;;10.23;;
2944;SDS011;1482;51.398;7.128;2022-11-14T08:06:53;10.87;;;9.80;;
2944;SDS011;1482;51.398;7.128;2022-11-14T08:09:19;10.33;;;9.40;;
2944;SDS011;1482;51.398;7.128;2022-11-14T08:11:44;13.60;;;10.67;;
2944;SDS011;1482;51.398;7.128;2022-11-14T08:14:13;12.90;;;11.50;;
2944;SDS011;1482;51.398;7.128;2022-11-14T08:16:39;12.90;;;11.60;;
2944;SDS011;1482;51.398;7.128;2022-11-14T08:19:05;12.80;;;11.50;;
2944;SDS011;1482;51.398;7.128;2022-11-14T08:21:30;11.17;;;10.03;;
2944;SDS011;1482;51.398;7.128;2022-11-14T08:23:56;12.20;;;11.00;;
2944;SDS011;1482;51.398;7.128;2022-11-14T08:26:21;13.17;;;11.80;;
2944;SDS011;1482;51.398;7.128;2022-11-14T08:28:47;12.70;;;11.43;;
2944;SDS011;1482;51.398;7.128;2022-11-14T08:31:18;15.50;;;13.90;;
2944;SDS011;1482;51.398;7.128;2022-11-14T08:33:44;15.00;;;13.47;;
2944;SDS011;1482;51.398;7.128;2022-11-14T08:36:09;15.03;;;11.13;;
2944;SDS011;1482;51.398;7.128;2022-11-14T08:38:35;21.60;;;17.10;;
2944;SDS011;1482;51.398;7.128;2022-11-14T08:41:01;18.30;;;13.83;;
2944;SDS011;1482;51.398;7.128;2022-11-14T08:43:28;19.40;;;13.90;;
2944;SDS011;1482;51.398;7.128;2022-11-14T08:45:57;17.17;;;13.83;;
2944;SDS011;1482;51.398;7.128;2022-11-14T08:48:24;17.53;;;14.07;;
2944;SDS011;1482;51.398;7.128;2022-11-14T08:50:50;21.93;;;14.73;;
2944;SDS011;1482;51.398;7.128;2022-11-14T08:53:15;23.57;;;15.40;;
2944;SDS011;1482;51.398;7.128;2022-11-14T08:55:47;21.20;;;14.93;;
2944;SDS011;1482;51.398;7.128;2022-11-14T08:58:13;19.03;;;13.50;;
2944;SDS011;1482;51.398;7.128;2022-11-14T09:00:39;21.30;;;16.03;;
2944;SDS011;1482;51.398;7.128;2022-11-14T09:03:11;21.07;;;14.70;;
2944;SDS011;1482;51.398;7.128;2022-11-14T09:05:39;21.13;;;13.90;;
2944;SDS011;1482;51.398;7.128;2022-11-14T09:08:05;22.07;;;14.27;;
2944;SDS011;1482;51.398;7.128;2022-11-14T09:10:31;19.07;;;14.43;;
2944;SDS011;1482;51.398;7.128;2022-11-14T09:12:57;20.30;;;13.73;;
2944;SDS011;1482;51.398;7.128;2022-11-14T09:15:25;22.97;;;15.70;;
2944;SDS011;1482;51.398;7.128;2022-11-14T09:17:52;21.20;;;15.23;;
2944;SDS011;1482;51.398;7.128;2022-11-14T09:20:18;22.93;;;14.50;;
2944;SDS011;1482;51.398;7.128;2022-11-14T09:22:44;23.93;;;16.30;;
2944;SDS011;1482;51.398;7.128;2022-11-14T09:25:10;24.33;;;16.20;;
2944;SDS011;1482;51.398;7.128;2022-11-14T09:27:35;21.80;;;15.20;;
2944;SDS011;1482;51.398;7.128;2022-11-14T09:30:01;23.40;;;16.67;;
2944;SDS011;1482;51.398;7.128;2022-11-14T09:32:27;23.90;;;16.47;;
2944;SDS011;1482;51.398;7.128;2022-11-14T09:34:52;25.00;;;16.53;;
2944;SDS011;1482;51.398;7.128;2022-11-14T09:37:18;24.27;;;17.07;;
2944;SDS011;1482;51.398;7.128;2022-11-14T09:39:43;29.07;;;19.97;;
2944;SDS011;1482;51.398;7.128;2022-11-14T09:45:03;25.57;;;17.00;;
2944;SDS011;1482;51.398;7.128;2022-11-14T09:52:58;23.90;;;15.53;;
2944;SDS011;1482;51.398;7.128;2022-11-14T09:55:29;19.70;;;14.60;;
2944;SDS011;1482;51.398;7.128;2022-11-14T09:57:57;29.83;;;17.40;;
2944;SDS011;1482;51.398;7.128;2022-11-14T10:00:24;23.33;;;15.00;;
2944;SDS011;1482;51.398;7.128;2022-11-14T10:10:55;27.80;;;17.03;;
2944;SDS011;1482;51.398;7.128;2022-11-14T10:15:55;16.87;;;11.90;;
2944;SDS011;1482;51.398;7.128;2022-11-14T10:24:35;14.90;;;11.53;;
2944;SDS011;1482;51.398;7.128;2022-11-14T10:27:53;12.60;;;10.27;;
2944;SDS011;1482;51.398;7.128;2022-11-14T10:30:34;12.83;;;9.40;;
2944;SDS011;1482;51.398;7.128;2022-11-14T10:33:15;12.93;;;9.37;;
2944;SDS011;1482;51.398;7.128;2022-11-14T10:35:57;10.70;;;8.97;;
2944;SDS011;1482;51.398;7.128;2022-11-14T10:38:43;10.97;;;7.90;;
2944;SDS011;1482;51.398;7.128;2022-11-14T10:41:35;11.40;;;9.27;;
2944;SDS011;1482;51.398;7.128;2022-11-14T10:44:02;11.47;;;9.40;;
2944;SDS011;1482;51.398;7.128;2022-11-14T10:46:37;12.20;;;8.47;;
2944;SDS011;1482;51.398;7.128;2022-11-14T10:49:19;11.83;;;9.33;;
2944;SDS011;1482;51.398;7.128;2022-11-14T10:51:49;13.73;;;9.80;;
2944;SDS011;1482;51.398;7.128;2022-11-14T10:54:43;12.90;;;8.70;;
2944;SDS011;1482;51.398;7.128;2022-11-14T10:57:17;10.77;;;8.80;;
2944;SDS011;1482;51.398;7.128;2022-11-14T10:59:44;14.07;;;10.60;;
2944;SDS011;1482;51.398;7.128;2022-11-14T11:02:11;12.53;;;8.80;;
2944;SDS011;1482;51.398;7.128;2022-11-14T11:04:37;14.57;;;10.90;;
2944;SDS011;1482;51.398;7.128;2022-11-14T11:09:39;12.93;;;10.50;;
2944;SDS011;1482;51.398;7.128;2022-11-14T11:15:15;17.37;;;11.00;;
2944;SDS011;1482;51.398;7.128;2022-11-14T11:17:55;16.43;;;12.10;;
2944;SDS011;1482;51.398;7.128;2022-11-14T11:20:36;18.23;;;12.07;;
2944;SDS011;1482;51.398;7.128;2022-11-14T11:25:35;16.37;;;11.30;;
2944;SDS011;1482;51.398;7.128;2022-11-14T11:28:10;17.27;;;13.20;;
2944;SDS011;1482;51.398;7.128;2022-11-14T11:30:54;14.67;;;11.77;;
2944;SDS011;1482;51.398;7.128;2022-11-14T11:33:28;15.90;;;12.20;;
2944;SDS011;1482;51.398;7.128;2022-11-14T11:35:56;16.30;;;12.47;;
2944;SDS011;1482;51.398;7.128;2022-11-14T11:38:25;16.80;;;12.17;;
2944;SDS011;1482;51.398;7.128;2022-11-14T11:40:53;18.50;;;12.20;;
2944;SDS011;1482;51.398;7.128;2022-11-14T11:43:29;19.87;;;13.13;;
2944;SDS011;1482;51.398;7.128;2022-11-14T11:46:04;18.30;;;12.80;;
2944;SDS011;1482;51.398;7.128;2022-11-14T11:48:37;18.40;;;12.13;;
2944;SDS011;1482;51.398;7.128;2022-11-14T11:51:03;17.80;;;14.00;;
2944;SDS011;1482;51.398;7.128;2022-11-14T11:53:35;19.40;;;13.00;;
2944;SDS011;1482;51.398;7.128;2022-11-14T11:56:11;17.83;;;13.43;;
2944;SDS011;1482;51.398;7.128;2022-11-14T11:58:45;21.00;;;14.30;;
2944;SDS011;1482;51.398;7.128;2022-11-14T12:01:15;16.47;;;11.57;;
2944;SDS011;1482;51.398;7.128;2022-11-14T12:03:44;15.73;;;11.63;;
2944;SDS011;1482;51.398;7.128;2022-11-14T12:06:15;16.37;;;12.63;;
2944;SDS011;1482;51.398;7.128;2022-11-14T12:11:55;17.47;;;12.57;;
2944;SDS011;1482;51.398;7.128;2022-11-14T12:30:57;13.80;;;10.60;;
2944;SDS011;1482;51.398;7.128;2022-11-14T12:35:55;12.57;;;9.83;;
2944;SDS011;1482;51.398;7.128;2022-11-14T12:38:23;16.53;;;11.90;;
2944;SDS011;1482;51.398;7.128;2022-11-14T12:40:56;14.17;;;10.40;;
2944;SDS011;1482;51.398;7.128;2022-11-14T12:43:34;13.60;;;10.07;;
2944;SDS011;1482;51.398;7.128;2022-11-14T12:46:04;10.30;;;8.50;;
2944;SDS011;1482;51.398;7.128;2022-11-14T12:51:52;12.67;;;9.97;;
2944;SDS011;1482;51.398;7.128;2022-11-14T12:54:00;14.47;;;10.50;;
2944;SDS011;1482;51.398;7.128;2022-11-14T12:59:03;11.33;;;9.07;;
2944;SDS011;1482;51.398;7.128;2022-11-14T13:01:36;12.63;;;10.30;;
2944;SDS011;1482;51.398;7.128;2022-11-14T13:04:27;15.03;;;10.00;;
2944;SDS011;1482;51.398;7.128;2022-11-14T13:12:36;13.93;;;9.37;;
2944;SDS011;1482;51.398;7.128;2022-11-14T13:18:17;15.77;;;10.73;;
2944;SDS011;1482;51.398;7.128;2022-11-14T13:24:07;14.73;;;10.43;;
2944;SDS011;1482;51.398;7.128;2022-11-14T13:26:35;13.17;;;10.17;;
2944;SDS011;1482;51.398;7.128;2022-11-14T13:29:05;14.57;;;11.40;;
2944;SDS011;1482;51.398;7.128;2022-11-14T13:33:59;16.70;;;11.40;;
2944;SDS011;1482;51.398;7.128;2022-11-14T13:42:49;17.80;;;12.60;;
2944;SDS011;1482;51.398;7.128;2022-11-14T13:51:00;15.43;;;11.33;;
2944;SDS011;1482;51.398;7.128;2022-11-14T13:53:29;16.17;;;11.77;;
2944;SDS011;1482;51.398;7.128;2022-11-14T13:56:00;20.13;;;12.73;;
2944;SDS011;1482;51.398;7.128;2022-11-14T14:01:20;16.70;;;12.67;;
2944;SDS011;1482;51.398;7.128;2022-11-14T14:12:04;15.03;;;11.20;;
2944;SDS011;1482;51.398;7.128;2022-11-14T14:20:25;17.20;;;11.70;;
2944;SDS011;1482;51.398;7.128;2022-11-14T14:26:01;19.13;;;12.13;;
2944;SDS011;1482;51.398;7.128;2022-11-14T14:28:36;15.27;;;12.33;;
2944;SDS011;1482;51.398;7.128;2022-11-14T14:31:16;15.57;;;11.80;;
2944;SDS011;1482;51.398;7.128;2022-11-14T14:33:48;24.30;;;12.90;;
2944;SDS011;1482;51.398;7.128;2022-11-14T14:36:19;20.97;;;12.57;;
2944;SDS011;1482;51.398;7.128;2022-11-14T14:38:47;18.40;;;12.10;;
2944;SDS011;1482;51.398;7.128;2022-11-14T14:41:13;19.77;;;12.20;;
2944;SDS011;1482;51.398;7.128;2022-11-14T14:43:42;18.07;;;12.67;;
2944;SDS011;1482;51.398;7.128;2022-11-14T14:46:15;18.60;;;11.03;;
2944;SDS011;1482;51.398;7.128;2022-11-14T14:48:49;14.93;;;10.67;;
2944;SDS011;1482;51.398;7.128;2022-11-14T14:51:15;16.20;;;11.40;;
2944;SDS011;1482;51.398;7.128;2022-11-14T14:53:54;15.70;;;10.60;;
2944;SDS011;1482;51.398;7.128;2022-11-14T14:56:21;17.57;;;12.10;;
2944;SDS011;1482;51.398;7.128;2022-11-14T14:58:50;18.83;;;12.77;;
2944;SDS011;1482;51.398;7.128;2022-11-14T15:01:20;18.17;;;12.70;;
2944;SDS011;1482;51.398;7.128;2022-11-14T15:03:50;18.83;;;12.93;;
2944;SDS011;1482;51.398;7.128;2022-11-14T15:06:27;19.20;;;12.67;;
2944;SDS011;1482;51.398;7.128;2022-11-14T15:08:58;16.23;;;12.90;;
2944;SDS011;1482;51.398;7.128;2022-11-14T15:11:27;15.57;;;11.83;;
2944;SDS011;1482;51.398;7.128;2022-11-14T15:13:54;16.53;;;12.67;;
2944;SDS011;1482;51.398;7.128;2022-11-14T15:16:22;17.60;;;12.40;;
2944;SDS011;1482;51.398;7.128;2022-11-14T15:18:50;16.53;;;11.60;;
2944;SDS011;1482;51.398;7.128;2022-11-14T15:24:10;19.20;;;13.03;;
2944;SDS011;1482;51.398;7.128;2022-11-14T15:26:44;25.07;;;13.37;;
2944;SDS011;1482;51.398;7.128;2022-11-14T15:29:21;21.33;;;13.80;;
2944;SDS011;1482;51.398;7.128;2022-11-14T15:31:51;20.03;;;13.87;;
2944;SDS011;1482;51.398;7.128;2022-11-14T15:37:05;16.60;;;11.93;;
2944;SDS011;1482;51.398;7.128;2022-11-14T15:39:35;15.10;;;12.40;;
2944;SDS011;1482;51.398;7.128;2022-11-14T15:44:50;16.30;;;11.90;;
2944;SDS011;1482;51.398;7.128;2022-11-14T15:49:53;18.37;;;11.53;;
2944;SDS011;1482;51.398;7.128;2022-11-14T15:52:29;16.63;;;12.40;;
2944;SDS011;1482;51.398;7.128;2022-11-14T15:55:01;14.10;;;11.00;;
2944;SDS011;1482;51.398;7.128;2022-11-14T15:57:27;16.40;;;11.77;;
2944;SDS011;1482;51.398;7.128;2022-11-14T15:59:55;17.17;;;12.47;;
2944;SDS011;1482;51.398;7.128;2022-11-14T16:02:22;19.60;;;12.50;;
2944;SDS011;1482;51.398;7.128;2022-11-14T16:04:52;20.10;;;14.47;;
2944;SDS011;1482;51.398;7.128;2022-11-14T16:07:19;16.60;;;11.90;;
2944;SDS011;1482;51.398;7.128;2022-11-14T16:09:46;14.50;;;12.30;;
2944;SDS011;1482;51.398;7.128;2022-11-14T16:12:11;19.93;;;13.00;;
2944;SDS011;1482;51.398;7.128;2022-11-14T16:14:37;17.80;;;12.43;;
2944;SDS011;1482;51.398;7.128;2022-11-14T16:17:03;15.57;;;11.60;;
2944;SDS011;1482;51.398;7.128;2022-11-14T16:19:29;18.93;;;12.60;;
2944;SDS011;1482;51.398;7.128;2022-11-14T16:22:01;17.63;;;12.63;;
2944;SDS011;1482;51.398;7.128;2022-11-14T16:24:27;16.30;;;12.03;;
2944;SDS011;1482;51.398;7.128;2022-11-14T16:26:54;18.07;;;12.60;;
2944;SDS011;1482;51.398;7.128;2022-11-14T16:29:21;18.73;;;12.73;;
2944;SDS011;1482;51.398;7.128;2022-11-14T16:31:47;17.40;;;13.87;;
2944;SDS011;1482;51.398;7.128;2022-11-14T16:34:17;15.87;;;12.60;;
2944;SDS011;1482;51.398;7.128;2022-11-14T16:36:44;18.57;;;13.00;;
2944;SDS011;1482;51.398;7.128;2022-11-14T16:39:10;13.00;;;11.00;;
2944;SDS011;1482;51.398;7.128;2022-11-14T16:41:37;20.17;;;12.60;;
2944;SDS011;1482;51.398;7.128;2022-11-14T16:44:03;13.03;;;11.53;;
2944;SDS011;1482;51.398;7.128;2022-11-14T16:46:29;18.00;;;12.90;;
2944;SDS011;1482;51.398;7.128;2022-11-14T16:48:54;14.40;;;11.80;;
2944;SDS011;1482;51.398;7.128;2022-11-14T16:51:20;15.47;;;12.30;;
2944;SDS011;1482;51.398;7.128;2022-11-14T16:53:45;17.10;;;11.37;;
2944;SDS011;1482;51.398;7.128;2022-11-14T16:56:11;17.27;;;13.40;;
2944;SDS011;1482;51.398;7.128;2022-11-14T16:58:37;18.83;;;12.17;;
2944;SDS011;1482;51.398;7.128;2022-11-14T17:01:05;16.67;;;12.13;;
2944;SDS011;1482;51.398;7.128;2022-11-14T17:03:31;20.67;;;10.90;;